Time;durP1;ratioP1;P1;durP2;ratioP2;P2;SDS_P1;SDS_P2;PMS_P1;PMS_P2;Temp;Humidity;BMP_temperature;BMP_pressure;BME280_temperature;BME280_humidity;BME280_pressure;Samples;Min_cycle;Max_cycle;Signal;HPM_P1;HPM_P2
2021/08/11 00:00:41;;;;;;;9.23;7.38;;;16.20;99.90;;;;;;6292104;28;20034;-83
2021/08/11 00:03:42;;;;;;;10.20;7.20;;;16.30;99.90;;;;;;6280831;28;20482;-82
2021/08/11 00:06:42;;;;;;;9.98;7.75;;;16.20;99.90;;;;;;6296938;28;20073;-85
2021/08/11 00:09:43;;;;;;;9.52;7.20;;;16.30;99.90;;;;;;6293426;28;20040;-86
2021/08/11 00:12:44;;;;;;;8.88;6.85;;;16.20;99.90;;;;;;6265904;28;20107;-85
2021/08/11 00:15:44;;;;;;;7.93;6.65;;;16.20;99.90;;;;;;6299463;28;20503;-84
2021/08/11 00:18:45;;;;;;;9.82;6.95;;;16.30;99.90;;;;;;6283043;28;20358;-84
2021/08/11 00:21:45;;;;;;;11.07;6.35;;;16.30;99.90;;;;;;6298852;28;20103;-83
2021/08/11 00:24:46;;;;;;;11.30;7.00;;;16.30;99.90;;;;;;6296294;28;20020;-85
2021/08/11 00:27:46;;;;;;;8.75;6.53;;;16.30;99.90;;;;;;6282985;28;20035;-85
2021/08/11 00:30:47;;;;;;;8.52;6.65;;;16.30;99.90;;;;;;6274373;28;20028;-84
2021/08/11 00:33:48;;;;;;;9.00;6.72;;;16.20;99.90;;;;;;6262193;28;20059;-86
2021/08/11 00:36:49;;;;;;;9.85;6.43;;;16.20;99.90;;;;;;6308453;28;20076;-85
2021/08/11 00:39:50;;;;;;;8.40;6.50;;;;;;;;;;6269892;28;20024;-85
2021/08/11 00:42:50;;;;;;;9.07;6.47;;;16.10;99.90;;;;;;6312443;28;20095;-86
2021/08/11 00:45:51;;;;;;;6.68;5.97;;;16.10;99.90;;;;;;6299338;28;20020;-85
2021/08/11 00:48:52;;;;;;;10.65;6.53;;;;;;;;;;6282139;28;20035;-84
2021/08/11 00:51:52;;;;;;;11.13;6.75;;;16.10;99.90;;;;;;6299056;28;20036;-85
2021/08/11 00:54:53;;;;;;;8.55;7.20;;;16.40;99.90;;;;;;6278906;28;20040;-85
2021/08/11 00:57:54;;;;;;;8.48;6.63;;;16.10;99.90;;;;;;6280292;28;20071;-85
2021/08/11 01:00:55;;;;;;;8.82;7.22;;;16.10;99.90;;;;;;6269370;28;20112;-84
2021/08/11 01:03:55;;;;;;;10.68;6.97;;;16.00;99.90;;;;;;6265529;28;20025;-84
2021/08/11 01:06:56;;;;;;;8.98;6.22;;;;;;;;;;6274607;28;20070;-84
2021/08/11 01:09:57;;;;;;;8.38;6.32;;;16.10;99.90;;;;;;6298610;28;20106;-84
2021/08/11 01:12:57;;;;;;;7.90;6.15;;;16.10;99.90;;;;;;6281805;28;20040;-86
2021/08/11 01:15:58;;;;;;;10.00;6.57;;;16.10;99.90;;;;;;6282374;28;20397;-84
2021/08/11 01:18:59;;;;;;;8.57;6.53;;;16.00;99.90;;;;;;6280865;28;20622;-83
2021/08/11 01:22:04;;;;;;;7.13;6.40;;;15.50;99.90;;;;;;6296188;28;20033;-86
2021/08/11 01:25:14;;;;;;;7.75;6.45;;;15.90;99.90;;;;;;6298377;28;20028;-85
2021/08/11 01:28:33;;;;;;;8.20;6.65;;;15.90;99.90;;;;;;6303595;28;20525;-84
2021/08/11 01:31:57;;;;;;;8.13;6.43;;;15.80;99.90;;;;;;6299254;28;20036;-85
2021/08/11 01:34:57;;;;;;;7.35;5.97;;;15.80;99.90;;;;;;6281585;28;20366;-85
2021/08/11 01:37:58;;;;;;;7.18;6.35;;;15.80;99.90;;;;;;6281500;28;20048;-84
2021/08/11 01:41:03;;;;;;;8.73;6.05;;;15.80;99.90;;;;;;6267006;28;20108;-84
2021/08/11 01:44:07;;;;;;;8.27;6.22;;;15.80;99.90;;;;;;6299079;28;20112;-83
2021/08/11 01:47:09;;;;;;;8.90;7.18;;;16.30;99.90;;;;;;6285995;28;20032;-86
2021/08/11 01:50:12;;;;;;;8.50;7.30;;;15.50;99.90;;;;;;6302409;28;20485;-84
2021/08/11 01:53:19;;;;;;;10.73;7.47;;;15.40;99.90;;;;;;6285842;28;20074;-85
2021/08/11 01:56:20;;;;;;;8.15;7.05;;;15.40;99.90;;;;;;6295420;28;20032;-85
2021/08/11 01:59:21;;;;;;;6.70;5.97;;;;;;;;;;6265823;28;20021;-84
2021/08/11 02:02:23;;;;;;;6.82;6.13;;;;;;;;;;6268076;28;20027;-84
2021/08/11 02:05:24;;;;;;;8.50;6.88;;;15.60;99.90;;;;;;6263670;28;20763;-85
2021/08/11 02:08:25;;;;;;;8.38;5.55;;;15.60;99.90;;;;;;6296413;28;20031;-84
2021/08/11 02:11:25;;;;;;;7.05;5.85;;;15.60;99.90;;;;;;6302713;28;20052;-84
2021/08/11 02:14:26;;;;;;;8.98;6.22;;;;;;;;;;6302049;28;20028;-83
2021/08/11 02:17:27;;;;;;;10.40;6.22;;;15.80;99.90;;;;;;6312897;28;20020;-84
2021/08/11 02:20:27;;;;;;;6.97;5.85;;;15.70;99.90;;;;;;6302421;28;20028;-84
2021/08/11 02:23:28;;;;;;;7.75;6.82;;;15.70;99.90;;;;;;6285527;28;20020;-84
2021/08/11 02:26:43;;;;;;;12.50;7.18;;;15.70;99.90;;;;;;6284918;28;20459;-85
2021/08/11 02:29:47;;;;;;;7.03;5.85;;;15.60;99.90;;;;;;6318069;28;20450;-85
2021/08/11 02:32:53;;;;;;;7.28;6.20;;;15.60;99.90;;;;;;6299370;28;20044;-85
2021/08/11 02:36:00;;;;;;;11.52;6.80;;;15.70;99.90;;;;;;6294771;28;20016;-84
2021/08/11 02:39:08;;;;;;;7.63;6.20;;;15.80;99.90;;;;;;6272911;28;20034;-83
2021/08/11 02:42:09;;;;;;;10.25;7.70;;;15.60;99.90;;;;;;6297255;28;20020;-83
2021/08/11 02:45:14;;;;;;;8.38;6.85;;;15.50;99.90;;;;;;6300444;28;20366;-84
2021/08/11 02:48:15;;;;;;;6.95;5.93;;;15.50;99.90;;;;;;6301819;28;20025;-83
2021/08/11 02:51:16;;;;;;;8.43;5.88;;;;;;;;;;6296841;28;20385;-86
2021/08/11 02:54:17;;;;;;;9.60;6.20;;;15.60;99.90;;;;;;6300257;28;20024;-83
2021/08/11 02:57:18;;;;;;;6.38;5.70;;;15.60;99.90;;;;;;6272171;28;20104;-84
2021/08/11 03:00:19;;;;;;;7.97;6.40;;;15.70;99.90;;;;;;6261421;28;20054;-85
2021/08/11 03:03:19;;;;;;;6.03;5.15;;;15.80;99.90;;;;;;6293974;28;20032;-84
2021/08/11 03:06:20;;;;;;;7.55;6.07;;;15.70;99.90;;;;;;6293266;28;20031;-86
2021/08/11 03:09:21;;;;;;;7.90;6.18;;;15.60;99.90;;;;;;6293155;28;20059;-85
2021/08/11 03:12:22;;;;;;;6.47;5.65;;;15.70;99.90;;;;;;6284376;28;20024;-85
2021/08/11 03:15:22;;;;;;;6.63;5.50;;;15.40;99.90;;;;;;6283700;28;20398;-84
2021/08/11 03:18:23;;;;;;;6.75;5.50;;;15.60;99.90;;;;;;6275446;28;20024;-83
2021/08/11 03:21:24;;;;;;;7.88;5.35;;;15.50;99.90;;;;;;6299562;28;20421;-84
2021/08/11 03:24:25;;;;;;;5.47;4.97;;;;;;;;;;6296818;28;20024;-87
2021/08/11 03:27:26;;;;;;;8.23;5.35;;;15.20;99.90;;;;;;6274662;28;20024;-84
2021/08/11 03:30:27;;;;;;;5.68;5.07;;;;;;;;;;6297645;28;20469;-83
2021/08/11 03:33:28;;;;;;;7.07;5.40;;;15.40;99.90;;;;;;6262075;28;20032;-83
2021/08/11 03:36:28;;;;;;;7.45;5.15;;;15.40;99.90;;;;;;6278489;28;20048;-85
2021/08/11 03:39:29;;;;;;;6.38;5.45;;;15.50;99.90;;;;;;6300813;28;20074;-85
2021/08/11 03:42:30;;;;;;;7.75;5.70;;;15.70;99.90;;;;;;6273844;28;20020;-83
2021/08/11 03:45:30;;;;;;;7.30;5.07;;;16.30;99.90;;;;;;6292663;28;20033;-85
2021/08/11 03:48:31;;;;;;;5.78;4.85;;;15.60;99.90;;;;;;6296225;28;20020;-83
2021/08/11 03:51:31;;;;;;;8.50;5.80;;;15.50;99.90;;;;;;6292160;28;20470;-83
2021/08/11 03:54:32;;;;;;;7.72;6.20;;;15.60;99.90;;;;;;6292215;28;20095;-85
2021/08/11 03:57:32;;;;;;;7.55;6.60;;;15.70;99.90;;;;;;6291736;28;20771;-83
2021/08/11 04:00:33;;;;;;;8.95;6.25;;;15.40;99.90;;;;;;6262571;28;20501;-83
2021/08/11 04:03:34;;;;;;;9.60;6.05;;;15.30;99.90;;;;;;6295172;28;20374;-85
2021/08/11 04:06:34;;;;;;;8.68;6.20;;;15.30;99.90;;;;;;6265853;28;20032;-83
2021/08/11 04:09:35;;;;;;;7.07;5.78;;;15.40;99.90;;;;;;6316481;28;20032;-84
2021/08/11 04:12:35;;;;;;;7.20;5.35;;;15.40;99.90;;;;;;6278438;28;20783;-82
2021/08/11 04:15:36;;;;;;;8.27;5.32;;;15.30;99.90;;;;;;6299472;28;20074;-84
2021/08/11 04:18:37;;;;;;;10.38;6.43;;;15.40;99.90;;;;;;6314554;28;20049;-85
2021/08/11 04:21:37;;;;;;;6.30;5.53;;;15.30;99.90;;;;;;6299080;28;20020;-84
2021/08/11 04:24:38;;;;;;;6.43;5.40;;;15.40;99.90;;;;;;6299108;28;20028;-84
2021/08/11 04:27:38;;;;;;;6.30;5.50;;;15.40;99.90;;;;;;6282959;28;20027;-86
2021/08/11 04:30:40;;;;;;;7.22;5.32;;;15.50;99.90;;;;;;6296657;28;20036;-85
2021/08/11 04:33:41;;;;;;;6.32;4.97;;;15.30;99.90;;;;;;6262658;28;20037;-83
2021/08/11 04:36:42;;;;;;;7.03;5.22;;;15.50;99.90;;;;;;6295485;28;20041;-84
2021/08/11 04:39:42;;;;;;;6.85;5.25;;;15.50;99.90;;;;;;6291554;28;20033;-85
2021/08/11 04:42:43;;;;;;;5.90;5.07;;;15.60;99.90;;;;;;6295734;28;20033;-85
2021/08/11 04:45:43;;;;;;;6.85;5.38;;;15.70;99.90;;;;;;6276483;28;20029;-84
2021/08/11 04:48:44;;;;;;;5.22;4.63;;;15.70;99.90;;;;;;6285794;28;20109;-84
2021/08/11 04:51:45;;;;;;;8.68;5.43;;;15.70;99.90;;;;;;6265865;28;20471;-86
2021/08/11 04:54:45;;;;;;;5.75;5.15;;;15.90;99.90;;;;;;6281742;28;20032;-86
2021/08/11 04:57:46;;;;;;;5.97;5.38;;;16.00;99.90;;;;;;6292048;28;20056;-85
2021/08/11 05:00:46;;;;;;;10.18;5.28;;;16.30;99.90;;;;;;6281440;28;20078;-82
2021/08/11 05:03:47;;;;;;;9.27;5.75;;;16.50;99.90;;;;;;6286773;28;20037;-84
2021/08/11 05:06:48;;;;;;;6.57;5.72;;;16.70;99.90;;;;;;6262352;28;20035;-82
2021/08/11 05:09:48;;;;;;;6.85;4.88;;;16.80;99.90;;;;;;6285539;28;20033;-82
2021/08/11 05:12:49;;;;;;;7.00;5.20;;;16.90;99.90;;;;;;6278539;28;20374;-86
2021/08/11 05:15:49;;;;;;;5.88;5.00;;;17.20;99.90;;;;;;6312429;28;20020;-82
2021/08/11 05:18:50;;;;;;;7.50;4.80;;;17.80;99.90;;;;;;6263354;28;20029;-82
2021/08/11 05:21:51;;;;;;;8.07;5.65;;;17.10;99.90;;;;;;6264215;28;20064;-83
2021/08/11 05:24:51;;;;;;;8.18;5.35;;;17.40;99.90;;;;;;6262678;28;20382;-84
2021/08/11 05:27:52;;;;;;;7.95;4.80;;;17.70;99.90;;;;;;6268279;28;20420;-82
2021/08/11 05:30:53;;;;;;;8.20;5.13;;;18.10;99.90;;;;;;6280626;28;20032;-78
2021/08/11 05:33:53;;;;;;;5.22;4.70;;;18.30;99.90;;;;;;6268440;28;20028;-81
2021/08/11 05:36:54;;;;;;;6.03;5.15;;;18.10;99.90;;;;;;6307004;28;20539;-81
2021/08/11 05:39:55;;;;;;;5.55;4.90;;;18.40;99.90;;;;;;6292404;28;20028;-81
2021/08/11 05:42:55;;;;;;;9.55;5.13;;;18.80;99.90;;;;;;6273713;28;20032;-79
2021/08/11 05:45:56;;;;;;;5.65;4.30;;;19.00;99.90;;;;;;6298303;28;20495;-81
2021/08/11 05:48:56;;;;;;;6.63;4.85;;;19.50;99.90;;;;;;6301630;28;20047;-84
2021/08/11 05:51:57;;;;;;;6.93;4.68;;;19.40;99.90;;;;;;6293753;28;20082;-84
2021/08/11 05:54:58;;;;;;;10.98;4.90;;;19.40;99.90;;;;;;6270987;28;20040;-83
2021/08/11 05:57:58;;;;;;;5.07;4.57;;;;;;;;;;6258365;28;20028;-86
2021/08/11 06:00:59;;;;;;;5.05;4.25;;;19.90;99.90;;;;;;6262529;28;20017;-86
2021/08/11 06:04:00;;;;;;;7.63;4.68;;;20.50;99.90;;;;;;6266012;28;20024;-85
2021/08/11 06:07:00;;;;;;;7.00;4.60;;;21.00;99.90;;;;;;6285317;28;20073;-84
2021/08/11 06:10:01;;;;;;;7.15;4.30;;;21.40;99.90;;;;;;6294503;28;20439;-80
2021/08/11 06:13:02;;;;;;;6.63;4.35;;;21.60;99.90;;;;;;6298080;28;20458;-85
2021/08/11 06:16:02;;;;;;;4.63;4.00;;;22.40;99.90;;;;;;6303642;28;20074;-80
2021/08/11 06:19:04;;;;;;;5.13;4.18;;;22.50;99.90;;;;;;6291009;28;20056;-83
2021/08/11 06:22:05;;;;;;;4.45;3.83;;;22.60;99.90;;;;;;6293961;28;20024;-80
2021/08/11 06:25:06;;;;;;;6.03;3.90;;;22.60;99.90;;;;;;6306545;28;20024;-83
2021/08/11 06:28:07;;;;;;;5.20;4.05;;;23.20;99.90;;;;;;6294494;28;20127;-80
2021/08/11 06:31:08;;;;;;;6.03;4.88;;;23.80;99.90;;;;;;6295051;28;20672;-81
2021/08/11 06:34:08;;;;;;;5.00;4.15;;;23.80;99.90;;;;;;6293542;28;20359;-80
2021/08/11 06:37:09;;;;;;;5.70;3.80;;;24.30;99.90;;;;;;6296860;28;20098;-79
2021/08/11 06:40:10;;;;;;;7.60;4.55;;;25.00;99.90;;;;;;6266245;28;20059;-80
2021/08/11 06:43:11;;;;;;;7.30;4.03;;;;;;;;;;6261507;28;20036;-79
2021/08/11 06:46:12;;;;;;;7.10;3.90;;;;;;;;;;6293882;28;20111;-79
2021/08/11 06:49:13;;;;;;;9.07;4.43;;;26.10;99.90;;;;;;6312666;28;20031;-78
2021/08/11 06:52:14;;;;;;;5.90;4.03;;;26.40;99.90;;;;;;6315543;28;20791;-79
2021/08/11 06:55:15;;;;;;;7.10;3.80;;;;;;;;;;6318942;28;20028;-80
2021/08/11 06:58:16;;;;;;;6.53;4.70;;;;;;;;;;6295380;28;20374;-79
2021/08/11 07:01:17;;;;;;;6.27;4.00;;;;;;;;;;6268209;28;20064;-80
2021/08/11 07:04:18;;;;;;;4.43;3.80;;;;;;;;;;6296054;28;20016;-79
2021/08/11 07:07:19;;;;;;;5.37;4.10;;;28.00;94.00;;;;;;6299139;28;20033;-81
2021/08/11 07:10:19;;;;;;;5.53;3.80;;;28.30;88.60;;;;;;6296702;28;20322;-80
2021/08/11 07:13:20;;;;;;;4.27;3.70;;;28.50;87.20;;;;;;6291981;28;20409;-80
2021/08/11 07:16:21;;;;;;;6.73;3.87;;;28.90;87.30;;;;;;6299640;28;20024;-82
2021/08/11 07:19:21;;;;;;;4.20;3.77;;;29.40;84.90;;;;;;6297286;28;20078;-79
2021/08/11 07:22:23;;;;;;;5.73;3.90;;;29.90;92.50;;;;;;6290392;28;20079;-82
2021/08/11 07:25:25;;;;;;;6.32;4.20;;;29.90;80.90;;;;;;6267363;28;20051;-80
2021/08/11 07:28:26;;;;;;;6.05;4.05;;;30.40;79.40;;;;;;6268263;28;20035;-81
2021/08/11 07:31:26;;;;;;;5.77;3.73;;;30.50;78.80;;;;;;6289656;28;20086;-80
2021/08/11 07:34:27;;;;;;;5.23;4.13;;;30.70;78.00;;;;;;6286385;28;20032;-81
2021/08/11 07:37:28;;;;;;;5.20;3.93;;;31.00;77.60;;;;;;6294753;28;20048;-81
2021/08/11 07:40:28;;;;;;;4.63;4.00;;;31.40;74.30;;;;;;6285074;28;20040;-82
2021/08/11 07:43:29;;;;;;;6.90;4.40;;;31.60;75.80;;;;;;6279838;28;20032;-84
2021/08/11 07:46:30;;;;;;;5.40;3.80;;;31.80;74.80;;;;;;6292768;28;20271;-81
2021/08/11 07:49:31;;;;;;;6.23;4.57;;;31.80;73.10;;;;;;6264445;28;20109;-80
2021/08/11 07:52:31;;;;;;;;;;;32.20;72.20;;;;;;6292549;28;20028;-83
2021/08/11 07:55:32;;;;;;;4.53;3.97;;;32.20;71.30;;;;;;6299868;28;20249;-82
2021/08/11 07:58:33;;;;;;;12.80;4.90;;;32.40;70.60;;;;;;6298927;28;20028;-83
2021/08/11 08:01:34;;;;;;;7.28;4.10;;;32.80;69.20;;;;;;6298722;28;20609;-80
2021/08/11 08:04:34;;;;;;;6.63;4.30;;;32.80;67.90;;;;;;6299909;28;20039;-80
2021/08/11 08:07:35;;;;;;;6.00;3.90;;;32.90;67.10;;;;;;6294963;28;20556;-80
2021/08/11 08:10:36;;;;;;;5.93;3.80;;;32.60;67.60;;;;;;6291832;28;20830;-81
2021/08/11 08:13:37;;;;;;;4.57;4.10;;;32.70;67.20;;;;;;6291850;28;20336;-80
2021/08/11 08:16:37;;;;;;;5.07;3.67;;;32.70;66.70;;;;;;6293058;28;20036;-85
2021/08/11 08:19:38;;;;;;;5.20;4.43;;;32.80;68.40;;;;;;6266415;28;20404;-82
2021/08/11 08:22:38;;;;;;;4.80;4.07;;;33.00;66.60;;;;;;6287936;28;20045;-84
2021/08/11 08:25:39;;;;;;;6.97;4.50;;;33.00;66.80;;;;;;6291898;28;20258;-80
2021/08/11 08:28:42;;;;;;;8.07;4.10;;;33.00;66.80;;;;;;6297066;28;20458;-81
2021/08/11 08:31:42;;;;;;;7.18;4.72;;;33.00;66.10;;;;;;6294164;28;20306;-82
2021/08/11 08:34:43;;;;;;;6.10;4.90;;;33.30;66.50;;;;;;6265824;28;20028;-85
2021/08/11 08:37:44;;;;;;;5.47;4.75;;;33.40;66.30;;;;;;6289573;28;20049;-81
2021/08/11 08:40:46;;;;;;;6.00;4.80;;;33.70;64.70;;;;;;6289069;28;20812;-84
2021/08/11 08:43:46;;;;;;;5.22;4.35;;;33.70;64.80;;;;;;6271357;28;20051;-83
2021/08/11 08:46:47;;;;;;;6.63;4.57;;;33.70;65.80;;;;;;6291296;28;20038;-81
2021/08/11 08:49:48;;;;;;;4.75;4.25;;;33.70;65.00;;;;;;6290930;28;20024;-83
2021/08/11 08:52:49;;;;;;;5.85;4.93;;;33.50;65.70;;;;;;6296404;28;20032;-81
2021/08/11 08:55:50;;;;;;;5.32;4.50;;;33.60;64.50;;;;;;6294490;28;20036;-82
2021/08/11 08:58:51;;;;;;;14.00;4.97;;;33.50;64.30;;;;;;6290568;28;20057;-84
2021/08/11 09:01:51;;;;;;;8.90;4.55;;;33.50;64.70;;;;;;6283210;28;20104;-82
2021/08/11 09:04:52;;;;;;;6.97;4.70;;;33.70;63.00;;;;;;6315180;28;20052;-87
2021/08/11 09:07:52;;;;;;;7.18;4.60;;;33.70;62.90;;;;;;6302691;28;20028;-81
2021/08/11 09:10:53;;;;;;;6.72;5.28;;;33.60;62.70;;;;;;6291099;28;20441;-83
2021/08/11 09:14:16;;;;;;;5.72;4.78;;;33.80;63.80;;;;;;6295525;28;20035;-84
2021/08/11 09:17:35;;;;;;;5.03;4.43;;;34.00;64.20;;;;;;6292616;28;20040;-82
2021/08/11 09:20:36;;;;;;;6.88;4.55;;;34.10;63.20;;;;;;6302382;28;20378;-81
2021/08/11 09:23:41;;;;;;;7.38;4.45;;;34.10;62.80;;;;;;6280429;28;20025;-80
2021/08/11 09:26:42;;;;;;;6.10;4.78;;;34.00;62.10;;;;;;6279056;28;20043;-80
2021/08/11 09:30:00;;;;;;;7.35;5.03;;;34.00;61.70;;;;;;6287413;28;20037;-80
2021/08/11 09:33:01;;;;;;;7.10;4.50;;;33.90;63.70;;;;;;6286928;28;20035;-82
2021/08/11 09:36:10;;;;;;;11.45;5.03;;;34.00;62.80;;;;;;6292399;28;20025;-81
2021/08/11 09:39:11;;;;;;;6.43;4.60;;;34.00;63.60;;;;;;6292810;28;20020;-83
2021/08/11 09:42:13;;;;;;;5.50;4.70;;;;;;;;;;6293242;28;20046;-84
2021/08/11 09:45:15;;;;;;;6.45;4.40;;;34.10;85.50;;;;;;6294807;28;20013;-84
2021/08/11 09:48:16;;;;;;;5.65;4.82;;;34.00;69.10;;;;;;6268203;28;20032;-83
2021/08/11 09:51:17;;;;;;;5.93;4.40;;;34.50;68.90;;;;;;6277019;28;20466;-83
2021/08/11 09:54:17;;;;;;;8.55;4.90;;;34.40;62.50;;;;;;6302390;28;20028;-83
2021/08/11 09:57:28;;;;;;;6.53;4.40;;;34.40;62.10;;;;;;6284387;28;20429;-83
2021/08/11 10:00:39;;;;;;;8.57;4.13;;;34.60;62.30;;;;;;6275497;28;20090;-83
2021/08/11 10:04:00;;;;;;;;;;;34.50;61.20;;;;;;6280584;28;20523;-84
2021/08/11 10:07:01;;;;;;;6.45;5.28;;;34.60;60.80;;;;;;6296831;28;19911;-82
2021/08/11 10:10:08;;;;;;;6.45;5.10;;;34.50;61.90;;;;;;6277317;28;20044;-85
2021/08/11 10:13:09;;;;;;;6.57;4.95;;;34.70;61.00;;;;;;6279193;28;20051;-85
2021/08/11 10:16:10;;;;;;;8.60;6.05;;;34.60;61.20;;;;;;6275376;28;20029;-87
2021/08/11 10:19:10;;;;;;;;;;;34.70;61.60;;;;;;6299352;28;20036;-85
2021/08/11 10:22:13;;;;;;;6.70;5.00;;;34.60;61.70;;;;;;6295856;28;19900;-85
2021/08/11 10:25:14;;;;;;;8.43;4.90;;;34.70;61.20;;;;;;6297002;28;20043;-84
2021/08/11 10:28:19;;;;;;;6.15;4.60;;;34.60;62.90;;;;;;6302151;28;20511;-87
2021/08/11 10:31:21;;;;;;;6.78;5.55;;;34.60;63.00;;;;;;6285444;28;20489;-85
2021/08/11 10:34:22;;;;;;;8.20;5.03;;;34.70;62.00;;;;;;6282746;28;20016;-86
2021/08/11 10:37:24;;;;;;;5.75;5.15;;;34.90;61.70;;;;;;6264013;28;20052;-82
2021/08/11 10:40:25;;;;;;;5.78;5.05;;;34.70;61.90;;;;;;6296961;28;20101;-81
2021/08/11 10:43:26;;;;;;;;;;;34.70;60.80;;;;;;6273385;28;20050;-83
2021/08/11 10:46:31;;;;;;;;;;;34.80;62.50;;;;;;6301882;28;19907;-83
2021/08/11 10:49:32;;;;;;;5.82;5.32;;;34.60;61.30;;;;;;6298542;28;19908;-80
2021/08/11 10:52:33;;;;;;;;;;;34.50;62.80;;;;;;6265535;28;20035;-82
2021/08/11 10:55:47;;;;;;;7.03;5.57;;;34.50;62.50;;;;;;6277343;28;20354;-83
2021/08/11 10:58:48;;;;;;;7.57;5.95;;;34.60;62.30;;;;;;6293861;28;20048;-82
2021/08/11 11:01:49;;;;;;;;;;;34.50;62.20;;;;;;6316234;28;20039;-85
2021/08/11 11:04:51;;;;;;;7.30;5.32;;;34.20;60.60;;;;;;6284519;28;19931;-82
2021/08/11 11:08:14;;;;;;;8.50;6.32;;;34.30;63.10;;;;;;6301740;28;20116;-86
2021/08/11 11:11:34;;;;;;;6.72;5.97;;;34.20;60.90;;;;;;6299793;28;20078;-80
2021/08/11 11:14:57;;;;;;;7.75;6.95;;;34.00;63.10;;;;;;6291637;28;20021;-81
2021/08/11 11:18:25;;;;;;;8.30;6.97;;;33.90;62.30;;;;;;6294306;28;20036;-81
2021/08/11 11:21:25;;;;;;;8.85;7.80;;;33.80;61.90;;;;;;6263311;28;20048;-83
2021/08/11 11:24:51;;;;;;;9.20;8.00;;;33.60;60.50;;;;;;6295230;28;20514;-81
2021/08/11 11:27:56;;;;;;;11.07;8.73;;;33.50;61.00;;;;;;6296084;28;20465;-80
2021/08/11 11:30:56;;;;;;;9.93;8.88;;;33.30;59.70;;;;;;6279653;28;20123;-80
2021/08/11 11:34:20;;;;;;;10.20;8.73;;;33.30;62.60;;;;;;6266252;28;20046;-82
2021/08/11 11:37:21;;;;;;;9.45;8.18;;;33.30;59.20;;;;;;6298473;28;20072;-82
2021/08/11 11:40:22;;;;;;;;;;;33.20;60.80;;;;;;6292858;28;20040;-80
2021/08/11 11:43:26;;;;;;;9.13;8.20;;;33.10;60.20;;;;;;6290453;28;20227;-80
2021/08/11 11:46:45;;;;;;;10.23;9.07;;;33.00;61.90;;;;;;6281083;28;20032;-83
2021/08/11 11:49:46;;;;;;;11.30;10.00;;;33.00;61.70;;;;;;6276561;28;20036;-83
2021/08/11 11:52:56;;;;;;;10.43;9.15;;;33.30;68.50;;;;;;6281858;28;20055;-81
2021/08/11 11:55:57;;;;;;;10.43;9.20;;;33.10;61.00;;;;;;6279808;28;20033;-80
2021/08/11 11:58:58;;;;;;;;;;;33.00;61.60;;;;;;6279228;28;20072;-80
2021/08/11 12:01:58;;;;;;;10.97;9.93;;;32.90;60.70;;;;;;6310497;28;19949;-79
2021/08/11 12:05:04;;;;;;;9.88;8.88;;;32.80;60.10;;;;;;6270621;28;20523;-80
2021/08/11 12:08:09;;;;;;;9.80;8.90;;;32.80;60.20;;;;;;6284480;28;20033;-83
2021/08/11 12:11:14;;;;;;;11.27;10.07;;;32.70;61.90;;;;;;6290776;28;20040;-80
2021/08/11 12:14:21;;;;;;;10.55;9.15;;;32.50;62.90;;;;;;6289639;28;20343;-82
2021/08/11 12:17:29;;;;;;;11.40;9.40;;;32.60;60.00;;;;;;6280879;28;20508;-81
2021/08/11 12:20:30;;;;;;;10.00;9.00;;;32.50;61.40;;;;;;6269043;28;20056;-81
2021/08/11 12:23:31;;;;;;;11.25;9.32;;;32.40;61.50;;;;;;6269137;28;20032;-80
2021/08/11 12:26:32;;;;;;;11.02;9.32;;;32.50;63.00;;;;;;6288785;28;20115;-80
2021/08/11 12:29:33;;;;;;;14.15;9.10;;;32.40;58.80;;;;;;6264200;28;20024;-80
2021/08/11 12:32:34;;;;;;;17.90;10.18;;;32.40;61.20;;;;;;6289602;28;20101;-80
2021/08/11 12:35:40;;;;;;;12.90;9.90;;;32.20;60.50;;;;;;6258665;28;20059;-80
2021/08/11 12:38:41;;;;;;;10.52;9.45;;;32.00;60.70;;;;;;6292392;28;20043;-80
2021/08/11 12:41:58;;;;;;;10.35;9.25;;;31.90;62.60;;;;;;6275073;28;20033;-79
2021/08/11 12:45:04;;;;;;;16.20;10.15;;;31.90;61.80;;;;;;6296949;28;20123;-83
2021/08/11 12:48:33;;;;;;;15.25;9.68;;;31.70;62.60;;;;;;6289935;28;20127;-80
2021/08/11 12:51:33;;;;;;;11.25;9.30;;;31.70;61.60;;;;;;6277250;28;20040;-83
2021/08/11 12:54:59;;;;;;;11.03;9.73;;;31.60;59.80;;;;;;6291960;28;20038;-79
2021/08/11 12:58:00;;;;;;;11.95;9.85;;;31.50;60.30;;;;;;6296843;28;20381;-80
2021/08/11 13:01:01;;;;;;;10.88;9.77;;;31.40;61.30;;;;;;6305767;28;20043;-80
2021/08/11 13:04:06;;;;;;;11.83;8.97;;;31.40;61.00;;;;;;6308754;28;20090;-80
2021/08/11 13:07:07;;;;;;;10.40;9.10;;;31.40;62.50;;;;;;6278102;28;20083;-79
2021/08/11 13:10:12;;;;;;;11.77;9.27;;;31.50;63.50;;;;;;6290503;28;20119;-80
2021/08/11 13:13:26;;;;;;;14.07;8.93;;;31.50;62.40;;;;;;6279225;28;20048;-80
2021/08/11 13:16:27;;;;;;;10.32;9.32;;;31.40;61.40;;;;;;6286719;28;20032;-82
2021/08/11 13:19:28;;;;;;;11.75;9.80;;;31.40;62.20;;;;;;6280434;28;20425;-79
2021/08/11 13:22:28;;;;;;;10.45;9.32;;;31.40;64.00;;;;;;6267775;28;20064;-83
2021/08/11 13:25:29;;;;;;;9.90;8.90;;;31.40;63.80;;;;;;6289385;28;20119;-83
2021/08/11 13:28:31;;;;;;;10.82;9.57;;;31.50;65.60;;;;;;6287743;28;20033;-79
2021/08/11 13:31:32;;;;;;;11.70;8.80;;;31.60;63.80;;;;;;6286894;28;20039;-83
2021/08/11 13:34:33;;;;;;;11.13;9.20;;;31.50;62.80;;;;;;6298790;28;20035;-81
2021/08/11 13:37:34;;;;;;;10.57;9.45;;;31.40;63.80;;;;;;6262494;28;20044;-79
2021/08/11 13:40:34;;;;;;;9.63;8.63;;;31.40;62.40;;;;;;6287818;28;20032;-80
2021/08/11 13:43:35;;;;;;;9.48;8.45;;;31.40;60.20;;;;;;6291925;28;20028;-80
2021/08/11 13:46:36;;;;;;;15.05;9.10;;;31.50;62.70;;;;;;6277881;28;20071;-81
2021/08/11 13:49:36;;;;;;;10.47;9.20;;;31.40;64.40;;;;;;6294592;28;20033;-80
2021/08/11 13:52:37;;;;;;;11.23;8.87;;;31.40;63.80;;;;;;6265226;28;20039;-79
2021/08/11 13:55:37;;;;;;;11.73;9.25;;;31.40;64.80;;;;;;6302228;28;20270;-81
2021/08/11 13:58:38;;;;;;;11.57;8.40;;;31.30;63.40;;;;;;6302793;28;20036;-82
2021/08/11 14:01:39;;;;;;;9.85;8.85;;;31.20;63.70;;;;;;6301785;28;20028;-79
2021/08/11 14:04:39;;;;;;;12.32;9.45;;;31.20;62.80;;;;;;6291476;28;20361;-81
2021/08/11 14:07:40;;;;;;;10.35;9.23;;;31.20;63.80;;;;;;6261814;28;20025;-81
2021/08/11 14:10:41;;;;;;;10.53;9.40;;;31.10;63.10;;;;;;6298727;28;20938;-81
2021/08/11 14:13:41;;;;;;;9.82;8.82;;;31.00;64.70;;;;;;6279184;28;20086;-84
2021/08/11 14:16:42;;;;;;;12.48;9.43;;;31.20;71.20;;;;;;6310849;28;20024;-81
2021/08/11 14:19:42;;;;;;;10.93;8.97;;;31.00;72.70;;;;;;6280694;28;20115;-82
2021/08/11 14:22:43;;;;;;;9.77;8.70;;;30.90;71.50;;;;;;6298089;28;20043;-82
2021/08/11 14:25:44;;;;;;;10.43;9.33;;;30.80;72.10;;;;;;6287196;28;20282;-78
2021/08/11 14:28:44;;;;;;;11.27;8.97;;;30.90;71.40;;;;;;6303295;28;20349;-80
2021/08/11 14:31:46;;;;;;;9.80;8.37;;;31.10;71.60;;;;;;6295377;28;20294;-81
2021/08/11 14:34:47;;;;;;;12.30;9.18;;;31.00;70.50;;;;;;6276797;28;20360;-81
2021/08/11 14:37:47;;;;;;;10.43;9.33;;;30.90;73.30;;;;;;6279971;28;20037;-79
2021/08/11 14:40:48;;;;;;;9.93;8.33;;;31.80;66.60;;;;;;6295371;28;20349;-80
2021/08/11 14:43:48;;;;;;;10.90;8.43;;;30.90;65.10;;;;;;6293405;28;20510;-81
2021/08/11 14:46:49;;;;;;;10.10;9.20;;;30.80;64.90;;;;;;6296372;28;20282;-83
2021/08/11 14:49:50;;;;;;;10.90;8.97;;;30.60;64.60;;;;;;6263914;28;20028;-81
2021/08/11 14:52:50;;;;;;;10.15;8.40;;;30.40;66.10;;;;;;6293920;28;20308;-85
2021/08/11 14:55:51;;;;;;;10.47;9.37;;;30.40;66.60;;;;;;6310270;28;20040;-84
2021/08/11 14:58:51;;;;;;;9.03;8.10;;;30.50;66.30;;;;;;6264553;28;20609;-82
2021/08/11 15:01:52;;;;;;;10.93;9.10;;;30.60;65.80;;;;;;6285076;28;20521;-81
2021/08/11 15:04:52;;;;;;;10.23;9.03;;;30.50;66.00;;;;;;6299179;28;20135;-83
2021/08/11 15:07:53;;;;;;;8.87;7.97;;;30.50;67.20;;;;;;6271852;28;20029;-84
2021/08/11 15:10:54;;;;;;;11.03;9.53;;;30.60;66.50;;;;;;6260615;28;20032;-81
2021/08/11 15:13:55;;;;;;;10.02;9.02;;;30.60;64.90;;;;;;6269092;28;20024;-84
2021/08/11 15:16:55;;;;;;;12.50;9.15;;;30.60;66.80;;;;;;6284739;28;20035;-83
2021/08/11 15:19:56;;;;;;;11.03;9.20;;;30.50;66.40;;;;;;6292931;28;20021;-82
2021/08/11 15:22:56;;;;;;;9.67;8.67;;;30.50;65.00;;;;;;6271196;28;20604;-81
2021/08/11 15:25:57;;;;;;;10.20;9.20;;;30.50;65.90;;;;;;6301193;28;20024;-81
2021/08/11 15:28:57;;;;;;;10.93;9.30;;;30.50;65.90;;;;;;6300673;28;20024;-81
2021/08/11 15:31:58;;;;;;;9.97;8.97;;;30.40;65.20;;;;;;6296624;28;20432;-82
2021/08/11 15:34:59;;;;;;;9.57;8.50;;;30.40;68.00;;;;;;6263231;28;20024;-81
2021/08/11 15:37:59;;;;;;;13.70;8.90;;;30.30;68.50;;;;;;6261876;28;20755;-81
2021/08/11 15:41:00;;;;;;;12.77;8.80;;;30.30;67.10;;;;;;6283456;28;20037;-81
2021/08/11 15:44:01;;;;;;;9.20;8.00;;;30.30;67.60;;;;;;6275831;28;20036;-84
2021/08/11 15:47:02;;;;;;;11.50;8.83;;;30.20;66.40;;;;;;6259529;28;20024;-81
2021/08/11 15:50:07;;;;;;;10.60;9.47;;;30.10;66.40;;;;;;6300820;28;20274;-82
2021/08/11 15:53:07;;;;;;;9.85;8.80;;;30.00;66.10;;;;;;6299893;28;20258;-82
2021/08/11 15:56:08;;;;;;;10.73;8.53;;;30.00;68.70;;;;;;6282908;28;20032;-81